Terminal Aerodrome Forecast
Issued by NWS

Home | Current Version | Previous Version | Text Only | Print | Product List | Glossary On
Versions: 1 2 3 4 5 6 7 8 9 10 11 12 13
436
FTUS42 KMLB 232331
TAFTIX
TAF
KTIX 232331Z 2400/2424 10008KT P6SM SCT030 SCT250
     FM241300 12008KT P6SM VCSH SCT030 SCT080 BKN250
     FM241800 11010KT P6SM VCSH SCT035 BKN250
      AMD NOT SKED 2401/2411=

USA.gov is the U.S. government's official web portal to all federal, state and local government web resources and services.